Time;durP1;ratioP1;P1;durP2;ratioP2;P2;SDS_P1;SDS_P2;PMS_P1;PMS_P2;Temp;Humidity;BMP_temperature;BMP_pressure;BME280_temperature;BME280_humidity;BME280_pressure;Samples;Min_cycle;Max_cycle;Signal;HPM_P1;HPM_P2
2022/10/04 00:01:30;;;;;;;2.55;1.00;;;;;;;16.13;46.36;101373.53;5066384;28;20376;-59
2022/10/04 00:04:08;;;;;;;1.75;1.00;;;;;;;16.09;46.33;101356.22;5063680;28;20396;-60
2022/10/04 00:06:34;;;;;;;3.25;1.00;;;;;;;16.02;46.61;101365.00;5056939;28;20380;-59
2022/10/04 00:10:31;;;;;;;2.38;0.93;;;;;;;16.03;46.50;101368.50;5091519;27;20962;-59
2022/10/04 00:13:14;;;;;;;2.60;1.05;;;;;;;16.08;46.54;101358.06;5087067;28;20396;-59
2022/10/04 00:15:40;;;;;;;2.93;1.20;;;;;;;16.07;46.60;101355.59;5085347;28;20501;-60
2022/10/04 00:18:11;;;;;;;2.80;1.10;;;;;;;16.00;46.64;101350.97;5073929;28;20553;-59
2022/10/04 00:20:54;;;;;;;2.75;1.00;;;;;;;15.95;46.96;101360.59;5086597;28;20382;-60
2022/10/04 00:24:59;;;;;;;4.45;1.00;;;;;;;16.00;46.71;101361.69;5100554;27;20988;-60
2022/10/04 00:27:26;;;;;;;3.90;1.03;;;;;;;16.03;46.76;101377.34;5086730;28;20394;-60
2022/10/04 00:30:00;;;;;;;3.03;1.03;;;;;;;16.00;46.75;101375.06;5078806;28;20394;-59
2022/10/04 00:33:41;;;;;;;3.75;1.30;;;;;;;15.99;46.94;101370.72;5084605;27;20406;-60
2022/10/04 00:36:25;;;;;;;3.33;1.30;;;;;;;15.97;46.98;101359.41;5050526;28;20456;-60
2022/10/04 00:39:05;;;;;;;2.90;1.08;;;;;;;15.97;46.96;101359.41;5059183;28;20391;-60
2022/10/04 00:41:37;;;;;;;3.60;1.20;;;;;;;15.93;47.10;101360.78;5066386;28;20384;-60
2022/10/04 00:46:08;;;;;;;1.60;1.10;;;;;;;15.92;47.15;101369.00;5052935;28;20416;-60
2022/10/04 00:51:54;;;;;;;2.72;1.20;;;;;;;15.85;47.11;101375.09;5040106;28;20784;-59
2022/10/04 00:54:49;;;;;;;1.65;1.15;;;;;;;15.85;47.29;101369.75;5020522;28;20480;-60
2022/10/04 00:57:20;;;;;;;2.90;1.20;;;;;;;15.82;47.30;101358.59;5023229;28;20466;-59
2022/10/04 01:02:03;;;;;;;4.47;1.33;;;;;;;15.76;47.63;101362.88;5051954;28;20786;-60
2022/10/04 01:04:41;;;;;;;3.58;1.42;;;;;;;15.72;47.34;101364.25;5026802;28;20971;-59
2022/10/04 01:07:09;;;;;;;2.88;1.40;;;;;;;15.71;47.46;101359.06;5040161;28;20385;-59
2022/10/04 01:09:41;;;;;;;1.88;1.30;;;;;;;15.72;47.26;101358.03;5040667;28;20449;-62
2022/10/04 01:12:16;;;;;;;1.50;1.13;;;;;;;15.68;47.41;101357.59;5038927;28;20396;-60
2022/10/04 01:15:04;;;;;;;1.20;1.10;;;;;;;15.66;47.74;101365.81;5032472;28;20421;-60
2022/10/04 01:17:30;;;;;;;3.72;1.48;;;;;;;15.64;47.36;101356.31;5031846;28;20431;-65
2022/10/04 01:19:56;;;;;;;2.90;1.60;;;;;;;15.63;47.56;101350.16;5033083;28;20522;-60
2022/10/04 01:22:43;;;;;;;3.63;1.30;;;;;;;15.62;47.67;101367.19;5046583;28;20810;-60
2022/10/04 01:25:09;;;;;;;1.53;1.10;;;;;;;15.59;47.55;101356.91;5046746;28;20432;-60
2022/10/04 01:29:48;;;;;;;2.65;1.40;;;;;;;15.57;47.70;101363.44;5087844;27;20421;-60
2022/10/04 01:32:13;;;;;;;1.50;1.13;;;;;;;15.58;47.71;101363.25;5076912;28;20898;-60
2022/10/04 01:34:39;;;;;;;3.07;1.30;;;;;;;15.60;47.64;101355.88;5068272;28;20797;-59
2022/10/04 01:37:04;;;;;;;3.50;1.30;;;;;;;15.60;47.75;101355.03;5087284;28;20864;-60
2022/10/04 01:39:57;;;;;;;3.90;1.30;;;;;;;15.56;47.64;101354.59;5072854;27;20944;-60
2022/10/04 01:42:31;;;;;;;2.20;1.42;;;;;;;15.51;47.75;101356.16;5078286;28;20404;-60
2022/10/04 01:49:17;;;;;;;2.20;1.30;;;;;;;15.39;47.91;101353.13;5078146;27;20408;-60
2022/10/04 01:51:55;;;;;;;3.42;1.27;;;;;;;15.36;48.15;101345.47;5051149;28;20476;-60
2022/10/04 01:54:31;;;;;;;1.95;1.20;;;;;;;15.43;48.01;101357.09;5055895;28;20392;-60
2022/10/04 01:57:51;;;;;;;1.67;1.10;;;;;;;15.42;48.11;101350.09;5089553;27;20477;-59
2022/10/04 02:00:20;;;;;;;3.33;1.10;;;;;;;15.42;47.78;101355.44;5063038;28;20448;-59
2022/10/04 02:04:13;;;;;;;3.20;1.80;;;;;;;15.38;47.84;101357.66;5076260;27;20404;-60
2022/10/04 02:06:42;;;;;;;3.80;1.20;;;;;;;15.46;47.82;101362.88;5074804;28;20402;-60
2022/10/04 02:10:09;;;;;;;2.20;1.02;;;;;;;15.46;47.63;101354.03;5092576;27;20402;-60
2022/10/04 02:12:37;;;;;;;4.15;1.48;;;;;;;15.34;47.97;101347.50;5081461;28;20431;-60
2022/10/04 02:15:07;;;;;;;3.33;1.23;;;;;;;15.34;48.08;101351.03;5078437;28;20891;-61
2022/10/04 02:21:27;;;;;;;4.00;1.20;;;;;;;15.32;47.99;101349.53;5095819;27;20463;-61
2022/10/04 02:24:57;;;;;;;3.58;1.17;;;;;;;15.32;48.02;101352.22;5097127;27;20938;-59
2022/10/04 02:29:50;;;;;;;2.05;1.10;;;;;;;15.37;47.96;101360.50;5078372;27;20461;-60
2022/10/04 02:35:02;;;;;;;2.13;1.10;;;;;;;15.37;47.86;101355.97;5040394;28;20383;-60
2022/10/04 02:41:05;;;;;;;2.92;1.23;;;;;;;15.21;47.99;101356.19;5084053;27;20975;-61
2022/10/04 02:44:48;;;;;;;2.40;1.20;;;;;;;15.28;48.22;101352.56;5078792;27;20461;-60
2022/10/04 02:48:09;;;;;;;2.65;1.30;;;;;;;15.37;47.55;101355.97;5093285;27;20989;-60
2022/10/04 02:50:43;;;;;;;2.28;1.20;;;;;;;15.27;47.79;101363.47;5052932;28;20400;-60
2022/10/04 02:53:21;;;;;;;2.20;1.10;;;;;;;15.31;47.89;101367.44;5066641;28;20901;-60
2022/10/04 02:55:47;;;;;;;2.65;1.20;;;;;;;15.31;47.93;101374.63;5066709;28;20411;-60
2022/10/04 02:58:17;;;;;;;2.08;1.25;;;;;;;15.29;47.78;101374.81;5079847;28;20381;-60
2022/10/04 03:01:06;;;;;;;2.90;1.23;;;;;;;15.28;48.00;101376.63;5097200;27;20406;-59
2022/10/04 03:03:35;;;;;;;2.58;1.10;;;;;;;15.33;47.75;101381.41;5087232;28;20452;-59
2022/10/04 03:08:07;;;;;;;2.72;1.38;;;;;;;15.33;47.79;101397.44;5091248;27;20402;-58
2022/10/04 03:10:34;;;;;;;1.67;1.30;;;;;;;15.37;47.56;101403.25;5086770;28;20394;-59
2022/10/04 03:13:01;;;;;;;3.47;1.38;;;;;;;15.41;47.53;101415.22;5086958;28;20381;-60
2022/10/04 03:15:26;;;;;;;1.45;1.20;;;;;;;15.38;47.58;101418.28;5081754;28;20386;-60
2022/10/04 03:17:52;;;;;;;3.13;1.40;;;;;;;15.38;47.60;101419.09;5077400;28;20469;-59
2022/10/04 03:20:20;;;;;;;4.00;1.80;;;;;;;15.41;47.53;101420.56;5083712;28;20384;-61
2022/10/04 03:22:49;;;;;;;3.10;1.60;;;;;;;15.41;47.75;101432.09;5075844;28;20745;-61
2022/10/04 03:25:22;;;;;;;2.67;1.45;;;;;;;15.35;47.86;101442.69;5084347;28;20378;-61
2022/10/04 03:27:49;;;;;;;2.13;1.42;;;;;;;15.34;48.07;101443.69;5073323;28;20410;-60
2022/10/04 03:30:19;;;;;;;1.85;1.40;;;;;;;15.29;48.07;101444.25;5083882;28;20398;-59
2022/10/04 03:35:07;;;;;;;3.65;1.48;;;;;;;15.24;48.20;101446.63;5083611;27;20410;-60
2022/10/04 03:37:36;;;;;;;3.38;1.50;;;;;;;15.21;48.29;101445.13;5078214;28;20406;-60
2022/10/04 03:40:07;;;;;;;2.10;1.50;;;;;;;15.15;48.48;101445.06;5083579;28;20429;-60
2022/10/04 03:42:35;;;;;;;3.83;1.52;;;;;;;15.13;48.60;101450.59;5082932;28;20392;-60
2022/10/04 03:45:05;;;;;;;2.40;1.40;;;;;;;15.11;48.53;101447.25;5076607;28;20401;-61
2022/10/04 03:47:34;;;;;;;1.90;1.50;;;;;;;15.07;48.46;101451.28;5086665;28;20405;-60
2022/10/04 03:50:05;;;;;;;2.80;1.60;;;;;;;15.12;48.57;101456.09;5085456;28;20488;-60
2022/10/04 03:52:33;;;;;;;3.47;1.80;;;;;;;15.05;48.74;101448.81;5074473;28;20386;-60
2022/10/04 03:55:02;;;;;;;4.10;1.77;;;;;;;15.03;48.89;101455.34;5086514;28;20991;-59
2022/10/04 03:57:29;;;;;;;1.80;1.50;;;;;;;15.03;48.65;101442.00;5079553;28;20801;-60
2022/10/04 03:59:56;;;;;;;2.80;1.80;;;;;;;15.01;48.66;101444.00;5079449;28;20374;-60
2022/10/04 04:02:42;;;;;;;3.53;1.88;;;;;;;14.93;49.02;101444.94;5080478;28;20391;-60
2022/10/04 04:07:11;;;;;;;6.32;2.33;;;;;;;14.83;49.26;101442.50;5089953;27;20406;-60
2022/10/04 04:10:00;;;;;;;2.00;1.67;;;;;;;14.89;48.87;101440.94;5077966;28;20430;-60
2022/10/04 04:12:39;;;;;;;2.30;1.60;;;;;;;14.85;49.19;101442.31;5066710;28;20372;-60
2022/10/04 04:15:10;;;;;;;2.77;1.70;;;;;;;14.85;49.24;101448.47;5066757;28;20386;-60
2022/10/04 04:19:37;;;;;;;3.33;1.80;;;;;;;14.86;49.18;101441.31;5098996;27;20410;-61
2022/10/04 04:22:02;;;;;;;3.33;1.83;;;;;;;14.84;48.88;101438.00;5086790;28;20398;-60
2022/10/04 04:26:56;;;;;;;2.85;1.80;;;;;;;14.84;48.98;101430.00;5045207;28;20502;-59
2022/10/04 04:29:32;;;;;;;2.70;2.00;;;;;;;14.86;49.04;101444.81;5026782;28;20411;-59
2022/10/04 04:31:59;;;;;;;3.40;1.95;;;;;;;14.91;48.85;101452.28;5016209;28;20472;-59
2022/10/04 04:34:43;;;;;;;2.67;2.00;;;;;;;14.90;48.92;101458.63;5023285;28;20380;-62
2022/10/04 04:37:09;;;;;;;4.38;2.00;;;;;;;14.88;49.08;101466.00;5015520;28;20402;-60
2022/10/04 04:39:42;;;;;;;4.45;2.00;;;;;;;14.90;49.21;101474.66;5006944;28;20428;-60
2022/10/04 04:42:22;;;;;;;3.65;2.28;;;;;;;14.93;48.92;101473.44;5015705;28;20461;-59
2022/10/04 04:45:13;;;;;;;2.65;2.00;;;;;;;15.00;48.78;101474.38;5026352;28;20415;-60
2022/10/04 04:47:43;;;;;;;6.22;2.65;;;;;;;15.16;48.73;101471.59;5026104;28;20454;-60
2022/10/04 04:50:19;;;;;;;4.85;3.30;;;;;;;15.13;48.64;101473.78;5021973;28;20772;-60
2022/10/04 04:52:52;;;;;;;3.88;2.20;;;;;;;15.27;48.22;101478.31;5006807;28;20397;-61
2022/10/04 04:55:24;;;;;;;5.75;2.60;;;;;;;15.54;47.76;101484.88;5010927;28;20767;-60
2022/10/04 04:57:53;;;;;;;14.13;2.97;;;;;;;15.81;47.12;101491.47;5025841;28;20403;-60
2022/10/04 05:00:31;;;;;;;3.40;2.00;;;;;;;16.04;46.75;101490.50;5025588;28;20433;-61
2022/10/04 05:05:23;;;;;;;5.70;2.28;;;;;;;16.34;46.02;101482.41;5091919;27;20405;-59
2022/10/04 05:08:03;;;;;;;4.53;1.73;;;;;;;16.65;45.35;101492.81;5086769;28;20471;-59
2022/10/04 05:11:41;;;;;;;4.65;2.05;;;;;;;16.92;44.66;101485.06;5092778;27;20462;-60
2022/10/04 05:14:43;;;;;;;4.03;1.80;;;;;;;17.14;44.13;101489.38;5085857;27;20819;-59
2022/10/04 05:17:22;;;;;;;3.40;1.70;;;;;;;17.29;43.80;101491.13;5066340;28;20411;-60
2022/10/04 05:22:13;;;;;;;2.40;1.70;;;;;;;17.66;42.96;101511.34;5097832;27;20459;-60
2022/10/04 05:24:44;;;;;;;4.40;1.52;;;;;;;17.95;42.38;101518.38;5086991;28;20402;-60
2022/10/04 05:27:30;;;;;;;3.65;1.90;;;;;;;18.15;41.96;101517.63;5086905;28;20383;-59
2022/10/04 05:30:13;;;;;;;4.00;1.50;;;;;;;18.45;41.43;101515.44;5064094;28;20379;-61
2022/10/04 05:32:58;;;;;;;4.35;1.60;;;;;;;18.64;41.10;101515.69;5055654;28;20390;-62
2022/10/04 05:35:27;;;;;;;2.20;1.50;;;;;;;18.87;40.42;101518.00;5048040;28;20393;-60
2022/10/04 05:38:22;;;;;;;3.50;1.60;;;;;;;19.16;39.98;101522.19;5045506;28;20392;-60
2022/10/04 05:41:13;;;;;;;3.10;1.50;;;;;;;19.41;39.43;101529.56;5047776;28;20405;-60
2022/10/04 05:43:50;;;;;;;3.85;1.73;;;;;;;19.61;38.90;101530.38;5047148;28;20377;-61
2022/10/04 05:46:28;;;;;;;3.17;1.57;;;;;;;19.91;38.59;101527.22;5055452;28;20480;-61
2022/10/04 05:49:22;;;;;;;5.65;1.90;;;;;;;20.32;37.97;101541.38;5088837;27;20463;-60
2022/10/04 05:51:52;;;;;;;4.55;2.00;;;;;;;20.44;37.44;101527.00;5083075;28;20488;-60
2022/10/04 05:54:26;;;;;;;6.22;1.83;;;;;;;20.61;37.21;101529.22;5085176;28;20386;-60
2022/10/04 05:57:19;;;;;;;2.90;1.90;;;;;;;20.91;36.74;101540.19;5084706;28;20771;-61
2022/10/04 06:00:22;;;;;;;4.00;2.08;;;;;;;21.27;35.84;101535.97;5130898;27;20411;-60
2022/10/04 06:03:29;;;;;;;5.00;1.93;;;;;;;21.74;34.96;101541.75;5106483;28;20392;-60
2022/10/04 06:06:01;;;;;;;4.40;1.98;;;;;;;22.00;34.84;101544.38;5004130;28;20492;-60
2022/10/04 06:08:50;;;;;;;3.50;2.10;;;;;;;22.22;33.80;101542.88;5004258;28;20386;-60
2022/10/04 06:11:32;;;;;;;5.30;2.30;;;;;;;22.48;33.75;101544.41;5076711;28;20388;-60
2022/10/04 06:14:10;;;;;;;4.18;1.90;;;;;;;22.89;32.95;101544.66;5107991;28;20443;-60
2022/10/04 06:16:52;;;;;;;3.95;1.85;;;;;;;23.09;32.53;101547.88;5107572;28;20418;-60
2022/10/04 06:19:32;;;;;;;3.97;1.90;;;;;;;23.11;32.35;101547.66;5108285;28;20420;-60
2022/10/04 06:22:21;;;;;;;4.20;1.93;;;;;;;23.25;32.27;101546.38;5106228;28;20377;-61
2022/10/04 06:24:54;;;;;;;3.80;1.75;;;;;;;23.56;31.87;101547.09;5102812;28;20424;-61
2022/10/04 06:27:25;;;;;;;7.05;1.80;;;;;;;24.23;30.59;101541.19;5107646;28;20404;-60
2022/10/04 06:29:59;;;;;;;9.15;2.10;;;;;;;24.86;29.72;101548.59;5118258;28;20385;-60
2022/10/04 06:32:49;;;;;;;5.03;1.85;;;;;;;25.58;28.54;101544.28;5106011;28;20922;-60
2022/10/04 06:35:50;;;;;;;4.35;1.75;;;;;;;25.82;27.98;101542.16;5084188;27;20448;-61
2022/10/04 06:40:25;;;;;;;4.15;2.40;;;;;;;24.71;29.11;101560.81;5033468;28;20409;-61
2022/10/04 06:43:09;;;;;;;7.80;2.08;;;;;;;24.62;29.37;101562.28;5046745;28;20409;-60
2022/10/04 06:45:43;;;;;;;5.93;2.17;;;;;;;24.91;29.11;101560.34;5039369;28;20411;-59
2022/10/04 06:48:24;;;;;;;3.97;2.33;;;;;;;24.78;29.22;101560.66;5040708;28;20437;-60
2022/10/04 06:52:17;;;;;;;3.83;2.00;;;;;;;24.63;29.31;101569.34;5086797;27;20834;-61
2022/10/04 06:55:16;;;;;;;1.98;1.77;;;;;;;24.35;29.65;101570.97;5050143;28;20409;-61
2022/10/04 06:57:44;;;;;;;3.90;1.70;;;;;;;24.38;29.62;101577.78;5037121;28;20469;-61
2022/10/04 07:00:25;;;;;;;3.95;1.60;;;;;;;24.34;29.28;101580.13;5041312;28;20441;-60
2022/10/04 07:03:11;;;;;;;3.45;1.70;;;;;;;24.32;29.37;101586.88;5037574;28;20398;-60
2022/10/04 07:06:02;;;;;;;3.60;1.50;;;;;;;24.21;29.25;101599.41;5026186;28;20399;-59
2022/10/04 07:08:51;;;;;;;6.85;1.67;;;;;;;23.96;29.79;101599.69;5039403;28;20772;-59
2022/10/04 07:11:29;;;;;;;5.00;1.88;;;;;;;23.81;30.00;101592.88;5040106;28;20381;-60
2022/10/04 07:14:02;;;;;;;1.70;1.40;;;;;;;23.74;29.98;101599.44;5040183;28;20417;-60
2022/10/04 07:16:43;;;;;;;2.05;1.30;;;;;;;23.67;29.98;101600.38;5030302;28;20387;-60
2022/10/04 07:19:30;;;;;;;2.13;1.50;;;;;;;23.78;30.19;101596.00;5040879;28;20385;-60
2022/10/04 07:22:14;;;;;;;2.90;1.60;;;;;;;23.74;30.16;101602.16;5038465;28;20389;-61
2022/10/04 07:25:20;;;;;;;2.10;1.43;;;;;;;23.57;30.01;101611.00;5044630;28;20435;-60
2022/10/04 07:30:47;;;;;;;2.88;1.30;;;;;;;23.65;30.06;101612.50;5023996;28;20437;-61
2022/10/04 07:33:19;;;;;;;3.65;1.50;;;;;;;23.52;30.20;101615.47;5026088;28;20516;-60
2022/10/04 07:35:57;;;;;;;3.08;1.40;;;;;;;23.18;30.11;101605.19;5033362;28;20386;-60
2022/10/04 07:38:28;;;;;;;3.42;1.38;;;;;;;23.10;30.54;101616.31;5028862;28;20383;-60
2022/10/04 07:41:08;;;;;;;7.10;1.45;;;;;;;23.03;30.58;101619.13;5036205;28;20389;-60
2022/10/04 07:43:49;;;;;;;4.75;1.60;;;;;;;23.21;30.55;101607.44;5045765;28;20386;-60
2022/10/04 07:46:27;;;;;;;4.82;1.60;;;;;;;23.18;30.34;101605.19;5045696;28;20796;-60
2022/10/04 07:48:54;;;;;;;2.60;1.30;;;;;;;23.27;30.36;101609.19;5045967;28;20393;-60
2022/10/04 07:51:34;;;;;;;2.20;1.40;;;;;;;23.29;29.98;101607.06;5032560;28;20434;-59
2022/10/04 07:54:22;;;;;;;2.60;1.35;;;;;;;23.22;30.12;101613.66;5025406;28;20522;-61
2022/10/04 07:57:02;;;;;;;2.27;1.20;;;;;;;23.19;30.14;101614.94;5040594;28;20764;-60
2022/10/04 07:59:47;;;;;;;3.33;1.40;;;;;;;23.40;30.00;101618.16;5036352;28;20387;-61
2022/10/04 08:02:25;;;;;;;1.60;1.20;;;;;;;23.38;29.97;101614.84;5025575;28;20766;-60
2022/10/04 08:05:29;;;;;;;1.70;1.20;;;;;;;23.41;29.79;101612.50;5031691;28;20425;-61
2022/10/04 08:07:58;;;;;;;2.20;1.20;;;;;;;23.54;29.53;101610.63;5021137;28;20382;-60
2022/10/04 08:11:16;;;;;;;3.58;1.40;;;;;;;23.46;30.00;101609.06;5034332;28;20413;-60
2022/10/04 08:13:50;;;;;;;2.95;1.65;;;;;;;23.60;29.81;101617.81;5031831;28;20797;-60
2022/10/04 08:16:57;;;;;;;5.18;1.58;;;;;;;23.60;29.77;101615.91;5054728;28;20470;-60
2022/10/04 08:19:51;;;;;;;3.92;1.30;;;;;;;23.52;30.07;101616.28;5041262;28;20399;-60
2022/10/04 08:22:31;;;;;;;4.40;1.83;;;;;;;23.53;29.42;101615.19;5026454;28;20385;-60
2022/10/04 08:25:37;;;;;;;4.30;1.20;;;;;;;23.52;29.75;101615.47;5035485;28;20771;-59
2022/10/04 08:31:21;;;;;;;2.15;1.50;;;;;;;23.43;29.96;101606.88;5028433;28;20860;-60
2022/10/04 08:34:05;;;;;;;2.40;1.40;;;;;;;23.46;29.91;101607.22;5038141;28;20767;-60
2022/10/04 08:36:40;;;;;;;2.38;1.48;;;;;;;23.40;30.07;101601.91;5018944;28;20409;-60
2022/10/04 08:39:23;;;;;;;1.90;1.40;;;;;;;23.44;30.13;101603.09;5037183;28;20387;-61
2022/10/04 08:41:52;;;;;;;2.65;1.38;;;;;;;23.33;30.06;101612.03;5040372;28;20947;-60
2022/10/04 08:45:56;;;;;;;3.40;1.23;;;;;;;22.89;30.38;101621.19;5096614;27;20457;-60
2022/10/04 08:48:59;;;;;;;2.83;1.30;;;;;;;22.61;30.58;101613.66;5086591;28;20492;-60
2022/10/04 08:51:46;;;;;;;3.55;1.33;;;;;;;22.44;30.97;101620.75;5087032;28;20465;-61
2022/10/04 08:56:21;;;;;;;4.10;1.80;;;;;;;22.29;31.56;101619.28;5091809;27;20412;-60
2022/10/04 08:59:19;;;;;;;2.95;1.50;;;;;;;22.33;31.61;101614.25;5056764;28;20508;-61
2022/10/04 09:02:03;;;;;;;1.93;1.30;;;;;;;22.21;31.58;101616.84;5058341;28;20406;-61
2022/10/04 09:04:40;;;;;;;4.13;1.30;;;;;;;22.20;31.81;101620.59;5054621;28;20396;-62
2022/10/04 09:07:30;;;;;;;4.03;1.40;;;;;;;22.13;31.41;101623.38;5066429;28;20398;-61
2022/10/04 09:10:02;;;;;;;5.03;1.60;;;;;;;22.14;31.50;101625.00;5066667;28;20380;-61
2022/10/04 09:12:51;;;;;;;2.67;1.50;;;;;;;22.16;31.58;101635.59;5066059;28;20376;-61
2022/10/04 09:15:25;;;;;;;2.40;1.60;;;;;;;22.19;31.63;101632.44;5066427;28;20936;-61
2022/10/04 09:18:11;;;;;;;4.25;1.40;;;;;;;22.36;31.30;101629.16;5064889;28;20391;-61
2022/10/04 09:20:48;;;;;;;2.17;1.50;;;;;;;22.28;31.36;101617.59;5065891;28;20817;-60
2022/10/04 09:23:43;;;;;;;1.55;1.30;;;;;;;22.10;31.23;101631.91;5066421;28;20388;-60
2022/10/04 09:26:36;;;;;;;1.60;1.40;;;;;;;22.07;31.61;101626.13;5057321;28;20396;-61
2022/10/04 09:29:04;;;;;;;2.73;1.50;;;;;;;22.03;32.02;101624.94;5065687;28;20380;-60
2022/10/04 09:31:39;;;;;;;3.43;1.60;;;;;;;22.17;32.01;101631.84;5066248;28;20438;-61
2022/10/04 09:34:23;;;;;;;3.00;1.40;;;;;;;22.35;31.90;101627.53;5066030;28;20458;-60
2022/10/04 09:37:03;;;;;;;3.78;1.83;;;;;;;22.13;31.85;101639.56;5054177;28;20384;-61
2022/10/04 09:39:50;;;;;;;4.05;2.10;;;;;;;22.13;31.97;101630.66;5065915;28;20463;-61
2022/10/04 09:45:05;;;;;;;2.90;1.75;;;;;;;22.23;31.76;101625.53;5084441;27;20411;-60
2022/10/04 09:49:36;;;;;;;1.92;1.48;;;;;;;22.09;31.94;101630.28;5076419;27;20785;-61
2022/10/04 09:52:23;;;;;;;1.95;1.50;;;;;;;22.22;31.68;101623.91;5086886;28;20409;-60
2022/10/04 09:54:53;;;;;;;1.95;1.60;;;;;;;22.19;31.64;101634.31;5084247;28;20378;-60
2022/10/04 09:57:40;;;;;;;2.10;1.73;;;;;;;22.21;31.88;101622.22;5065950;28;20428;-60
2022/10/04 10:00:21;;;;;;;3.10;1.50;;;;;;;22.14;32.28;101633.09;5069451;28;20386;-62
2022/10/04 10:03:11;;;;;;;2.58;1.67;;;;;;;22.15;31.98;101633.94;5074728;28;20392;-61
2022/10/04 10:06:04;;;;;;;4.35;1.70;;;;;;;22.26;31.54;101625.13;5073421;28;20413;-60
2022/10/04 10:08:48;;;;;;;2.72;1.60;;;;;;;22.33;31.31;101639.38;5071984;28;20411;-60
2022/10/04 10:14:40;;;;;;;6.70;1.85;;;;;;;22.40;31.69;101631.19;5051965;28;20986;-60
2022/10/04 10:17:19;;;;;;;1.83;1.40;;;;;;;22.48;31.59;101630.06;5066542;28;20397;-60
2022/10/04 10:19:47;;;;;;;3.88;1.40;;;;;;;22.54;30.98;101621.03;5046414;28;20480;-60
2022/10/04 10:22:12;;;;;;;1.75;1.40;;;;;;;22.49;31.31;101635.22;5060322;28;20449;-60
2022/10/04 10:24:53;;;;;;;2.37;1.43;;;;;;;22.32;31.40;101628.78;5055514;28;20380;-61
2022/10/04 10:27:37;;;;;;;3.58;1.50;;;;;;;22.28;31.29;101627.59;5065880;28;20469;-61
2022/10/04 10:30:32;;;;;;;2.13;1.50;;;;;;;22.39;31.35;101632.22;5065922;28;20388;-60
2022/10/04 10:33:16;;;;;;;4.28;1.77;;;;;;;22.33;31.53;101636.66;5026127;28;21312;-61
2022/10/04 10:36:20;;;;;;;3.15;1.50;;;;;;;22.38;31.66;101643.25;5061950;28;20905;-60
2022/10/04 10:39:12;;;;;;;2.30;1.40;;;;;;;22.41;31.45;101632.81;5003842;28;20396;-60
2022/10/04 10:42:06;;;;;;;2.22;1.38;;;;;;;22.42;31.10;101623.69;5061055;28;20392;-59
2022/10/04 10:45:13;;;;;;;2.42;1.42;;;;;;;22.54;31.27;101631.84;5053690;28;20394;-60
2022/10/04 10:47:51;;;;;;;1.63;1.25;;;;;;;22.40;31.32;101625.78;5047125;28;20925;-61
2022/10/04 10:50:57;;;;;;;2.15;1.40;;;;;;;22.10;31.31;101631.91;5055683;28;20404;-60
2022/10/04 10:53:42;;;;;;;2.83;1.20;;;;;;;22.04;31.59;101631.97;5075891;28;20386;-61
2022/10/04 10:56:22;;;;;;;2.90;1.20;;;;;;;21.98;31.44;101624.78;5065444;28;20391;-60
2022/10/04 10:59:10;;;;;;;3.42;1.63;;;;;;;22.15;31.66;101628.53;5076727;28;20396;-60
2022/10/04 11:01:59;;;;;;;4.75;1.35;;;;;;;22.24;31.38;101626.38;5052226;28;20381;-61
2022/10/04 11:04:53;;;;;;;4.07;1.38;;;;;;;22.26;30.95;101624.28;5049944;28;20386;-61
2022/10/04 11:07:52;;;;;;;2.50;1.40;;;;;;;22.31;31.38;101632.56;5065509;28;20393;-60
2022/10/04 11:11:02;;;;;;;2.92;1.52;;;;;;;22.32;31.17;101629.59;5048481;28;20381;-61
2022/10/04 11:13:37;;;;;;;6.30;1.17;;;;;;;22.37;30.77;101636.22;5052911;28;20455;-61
2022/10/04 11:16:21;;;;;;;1.45;1.02;;;;;;;22.21;31.10;101635.72;5043417;28;20383;-62
2022/10/04 11:19:14;;;;;;;2.53;1.40;;;;;;;22.51;31.23;101637.72;5071699;28;20383;-61
2022/10/04 11:22:29;;;;;;;4.30;1.30;;;;;;;22.61;31.13;101631.75;5071509;28;20411;-60
2022/10/04 11:25:08;;;;;;;3.65;1.35;;;;;;;22.69;31.12;101628.75;5071338;28;20780;-60
2022/10/04 11:27:55;;;;;;;2.03;1.10;;;;;;;22.56;30.95;101626.22;5071613;28;20903;-60
2022/10/04 11:30:25;;;;;;;1.95;1.50;;;;;;;22.42;31.28;101629.09;5068566;28;20481;-60
2022/10/04 11:34:45;;;;;;;2.85;1.30;;;;;;;22.45;31.47;101631.31;5059134;28;20454;-61
2022/10/04 11:37:11;;;;;;;1.45;1.10;;;;;;;22.39;31.44;101626.84;5046585;28;20401;-61
2022/10/04 11:39:54;;;;;;;2.90;1.10;;;;;;;22.51;31.04;101630.44;5047080;28;20381;-60
2022/10/04 11:42:52;;;;;;;1.90;1.20;;;;;;;22.62;30.92;101630.72;5037460;28;20468;-61
2022/10/04 11:45:32;;;;;;;2.75;1.27;;;;;;;22.56;30.92;101626.22;5044309;28;20447;-61
2022/10/04 11:48:13;;;;;;;3.13;1.50;;;;;;;22.38;31.25;101624.34;5046218;28;20895;-61
2022/10/04 11:51:46;;;;;;;2.22;1.80;;;;;;;22.29;31.30;101630.06;5088462;27;20775;-61
2022/10/04 11:55:01;;;;;;;2.58;1.38;;;;;;;22.51;31.59;101635.00;5071304;27;20404;-61
2022/10/04 11:57:44;;;;;;;3.47;1.38;;;;;;;22.54;31.46;101626.44;5051332;28;20414;-61
2022/10/04 12:00:13;;;;;;;3.47;1.48;;;;;;;22.33;31.49;101636.66;5059049;28;20399;-62
2022/10/04 12:03:32;;;;;;;2.45;1.50;;;;;;;22.45;31.60;101636.72;5065184;28;20394;-62
2022/10/04 12:06:16;;;;;;;2.10;1.50;;;;;;;22.48;31.49;101630.06;5080939;28;20454;-60
2022/10/04 12:08:58;;;;;;;3.67;2.08;;;;;;;22.59;31.20;101628.47;5060707;28;20431;-61
2022/10/04 12:13:52;;;;;;;8.88;1.60;;;;;;;22.50;31.37;101627.94;5076834;27;20410;-61
2022/10/04 12:16:35;;;;;;;6.17;1.97;;;;;;;22.55;31.16;101640.78;5080848;28;20501;-62
2022/10/04 12:19:23;;;;;;;3.33;1.50;;;;;;;22.31;31.48;101640.66;5084528;28;20404;-60
2022/10/04 12:22:11;;;;;;;3.00;1.30;;;;;;;22.03;31.13;101644.66;5083424;28;20397;-61
2022/10/04 12:24:37;;;;;;;2.30;1.30;;;;;;;21.79;31.53;101650.91;5084072;28;20400;-61
2022/10/04 12:27:37;;;;;;;3.70;1.40;;;;;;;21.76;31.20;101652.19;5077418;28;20401;-61
2022/10/04 12:30:25;;;;;;;2.03;1.33;;;;;;;21.63;31.49;101661.22;5073850;28;20387;-62
2022/10/04 12:32:53;;;;;;;2.50;1.45;;;;;;;21.64;31.59;101653.94;5082483;28;20943;-62
2022/10/04 12:35:50;;;;;;;3.75;1.60;;;;;;;21.57;31.99;101662.94;5080402;28;20386;-61
2022/10/04 12:38:47;;;;;;;3.20;2.00;;;;;;;21.68;31.97;101663.25;5075154;28;20921;-61
2022/10/04 12:41:46;;;;;;;4.55;1.63;;;;;;;21.44;32.43;101656.78;5082783;28;20413;-61
2022/10/04 12:46:59;;;;;;;2.40;1.77;;;;;;;21.64;32.42;101659.34;5072205;27;20393;-61
2022/10/04 12:49:44;;;;;;;2.50;1.90;;;;;;;21.58;32.53;101658.38;5063545;28;20400;-62
2022/10/04 12:52:24;;;;;;;3.75;1.60;;;;;;;21.53;32.64;101667.09;5065179;28;20384;-60
2022/10/04 12:55:00;;;;;;;3.00;1.95;;;;;;;21.55;32.39;101662.34;5065690;28;20375;-60
2022/10/04 12:57:31;;;;;;;4.15;1.60;;;;;;;21.55;31.86;101658.78;5052594;28;20396;-60
2022/10/04 13:00:03;;;;;;;2.75;1.50;;;;;;;21.40;32.01;101667.19;5059415;28;20383;-62
2022/10/04 13:03:53;;;;;;;2.63;1.30;;;;;;;21.28;31.48;101672.44;5076203;27;2089338;-61
2022/10/04 13:06:44;;;;;;;3.50;1.60;;;;;;;21.25;31.56;101669.34;5126975;28;20403;-61
2022/10/04 13:10:01;;;;;;;6.30;1.38;;;;;;;21.35;31.65;101664.31;5121305;28;20521;-61
2022/10/04 13:12:37;;;;;;;4.45;1.60;;;;;;;21.45;31.49;101663.84;5099928;28;20448;-65
2022/10/04 13:18:08;;;;;;;4.07;1.30;;;;;;;21.32;31.35;101668.28;5108760;27;20461;-61
2022/10/04 13:20:39;;;;;;;3.30;1.10;;;;;;;21.25;31.33;101667.50;5095196;28;20439;-63
2022/10/04 13:23:14;;;;;;;5.10;1.52;;;;;;;21.12;31.80;101671.13;5099617;28;20381;-61
2022/10/04 13:26:08;;;;;;;3.75;1.42;;;;;;;21.23;31.68;101669.59;5106170;28;20913;-61
2022/10/04 13:28:38;;;;;;;2.90;1.20;;;;;;;21.13;31.85;101661.97;5106624;28;20381;-61
2022/10/04 13:31:15;;;;;;;2.33;1.27;;;;;;;21.04;32.22;101665.16;5100521;28;20390;-61
2022/10/04 13:33:48;;;;;;;4.23;1.67;;;;;;;21.02;32.28;101661.84;5106162;28;20536;-61
2022/10/04 13:36:32;;;;;;;5.03;1.85;;;;;;;20.93;32.25;101661.28;5100179;28;20400;-60
2022/10/04 13:39:13;;;;;;;3.08;1.63;;;;;;;20.87;32.63;101668.34;5094775;28;20386;-67
2022/10/04 13:41:47;;;;;;;6.00;1.80;;;;;;;20.95;32.56;101678.06;5087350;28;20382;-60
2022/10/04 13:44:16;;;;;;;4.10;1.70;;;;;;;20.91;32.21;101680.34;5106283;28;20388;-61
2022/10/04 13:46:57;;;;;;;3.60;1.60;;;;;;;20.68;32.69;101680.06;5105851;28;20456;-60